Time;durP1;ratioP1;P1;durP2;ratioP2;P2;SDS_P1;SDS_P2;PMS_P1;PMS_P2;Temp;Humidity;BMP_temperature;BMP_pressure;BME280_temperature;BME280_humidity;BME280_pressure;Samples;Min_cycle;Max_cycle;Signal;HPM_P1;HPM_P2
2022/05/22 00:01:35;;;;;;;14.10;4.35;;;11.80;99.90;;;;;;5009571;28;20040;-80
2022/05/22 00:04:01;;;;;;;10.30;4.07;;;10.60;99.90;;;;;;5016150;28;20102;-79
2022/05/22 00:06:27;;;;;;;5.07;3.05;;;10.70;99.90;;;;;;5022153;28;20045;-79
2022/05/22 00:08:53;;;;;;;10.73;3.65;;;10.60;99.90;;;;;;5026686;28;20175;-79
2022/05/22 00:11:18;;;;;;;8.73;3.33;;;10.50;99.90;;;;;;5022319;28;20129;-78
2022/05/22 00:13:44;;;;;;;7.07;3.38;;;11.70;99.90;;;;;;5004808;28;20508;-79
2022/05/22 00:18:54;;;;;;;6.30;3.00;;;10.50;99.90;;;;;;5038926;28;20049;-79
2022/05/22 00:21:19;;;;;;;7.93;3.10;;;10.50;99.90;;;;;;5020057;28;20091;-80
2022/05/22 00:23:45;;;;;;;10.23;3.92;;;10.50;99.90;;;;;;5041688;28;20045;-80
2022/05/22 00:26:11;;;;;;;10.88;3.25;;;10.50;99.90;;;;;;5036640;28;20037;-79
2022/05/22 00:28:36;;;;;;;12.13;3.90;;;10.40;99.90;;;;;;5037909;28;20053;-79
2022/05/22 00:31:02;;;;;;;6.82;3.58;;;10.50;99.90;;;;;;5022488;28;20048;-80
2022/05/22 00:33:28;;;;;;;8.82;4.25;;;10.50;99.90;;;;;;5018795;28;20409;-80
2022/05/22 00:35:54;;;;;;;10.75;4.03;;;11.60;99.90;;;;;;5021700;28;20411;-79
2022/05/22 00:38:20;;;;;;;10.52;4.38;;;11.00;99.90;;;;;;5014136;28;20048;-79
2022/05/22 00:40:46;;;;;;;11.68;4.47;;;10.30;99.90;;;;;;5022704;28;20135;-80
2022/05/22 00:43:36;;;;;;;7.88;4.30;;;10.30;99.90;;;;;;5025042;28;20091;-80
2022/05/22 00:46:05;;;;;;;9.30;4.20;;;10.70;99.90;;;;;;5024069;28;20575;-80
2022/05/22 00:48:31;;;;;;;8.02;3.67;;;10.40;99.90;;;;;;5020542;28;20033;-80
2022/05/22 00:51:20;;;;;;;9.90;3.88;;;10.40;99.90;;;;;;5006603;28;20036;-80
2022/05/22 00:53:52;;;;;;;15.45;4.38;;;10.40;99.90;;;;;;5018137;28;20052;-80
2022/05/22 00:56:24;;;;;;;8.60;4.45;;;10.40;99.90;;;;;;5004090;28;20457;-80
2022/05/22 00:58:53;;;;;;;15.95;4.45;;;11.50;99.90;;;;;;5037382;28;20041;-80
2022/05/22 01:01:18;;;;;;;11.32;4.40;;;10.30;99.90;;;;;;5002835;28;20638;-80
2022/05/22 01:03:44;;;;;;;9.77;4.32;;;10.30;99.90;;;;;;5020065;28;20047;-79
2022/05/22 01:06:26;;;;;;;8.30;4.47;;;10.40;99.90;;;;;;5022113;28;20267;-80
2022/05/22 01:08:52;;;;;;;11.23;4.20;;;10.30;99.90;;;;;;5004444;28;20052;-79
2022/05/22 01:11:28;;;;;;;9.63;4.63;;;10.30;99.90;;;;;;5024510;28;20536;-80
2022/05/22 01:13:58;;;;;;;9.35;4.40;;;10.30;99.90;;;;;;5035573;28;20049;-80
2022/05/22 01:16:25;;;;;;;8.73;4.13;;;10.30;99.90;;;;;;5020460;28;20080;-80
2022/05/22 01:18:53;;;;;;;11.98;4.97;;;10.30;99.90;;;;;;5024992;28;20049;-80
2022/05/22 01:21:22;;;;;;;12.95;5.15;;;11.20;99.90;;;;;;5010059;28;20029;-80
2022/05/22 01:23:48;;;;;;;13.43;5.32;;;10.30;99.90;;;;;;5045095;28;20132;-80
2022/05/22 01:26:14;;;;;;;9.93;4.75;;;10.20;99.90;;;;;;5004528;28;20037;-80
2022/05/22 01:28:40;;;;;;;9.20;4.40;;;10.30;99.90;;;;;;5027766;28;20048;-80
2022/05/22 01:31:10;;;;;;;12.80;5.07;;;10.30;99.90;;;;;;5009402;28;20071;-80
2022/05/22 01:33:37;;;;;;;10.95;4.10;;;10.70;99.90;;;;;;5046600;28;20496;-80
2022/05/22 01:36:05;;;;;;;8.25;4.65;;;10.20;99.90;;;;;;5024495;28;20045;-76
2022/05/22 01:38:31;;;;;;;11.13;4.53;;;10.20;99.90;;;;;;5026031;28;20129;-79
2022/05/22 01:40:57;;;;;;;9.23;4.38;;;10.20;99.90;;;;;;5009967;28;20152;-78
2022/05/22 01:43:22;;;;;;;12.15;5.28;;;10.10;99.90;;;;;;5041240;28;20159;-80
2022/05/22 01:45:49;;;;;;;9.48;4.63;;;10.20;99.90;;;;;;5044884;28;20066;-81
2022/05/22 01:48:14;;;;;;;11.48;5.75;;;9.90;99.90;;;;;;5021750;28;20038;-79
2022/05/22 01:50:43;;;;;;;6.85;4.40;;;11.80;99.90;;;;;;5021641;28;20107;-80
2022/05/22 01:53:08;;;;;;;7.55;4.60;;;10.10;99.90;;;;;;5008629;28;20341;-77
2022/05/22 01:55:34;;;;;;;8.75;4.00;;;10.80;99.90;;;;;;5018947;28;20044;-80
2022/05/22 01:58:00;;;;;;;10.13;5.03;;;10.00;99.90;;;;;;5021506;28;20120;-78
2022/05/22 02:00:26;;;;;;;10.85;4.80;;;10.00;99.90;;;;;;5019478;28;20069;-78
2022/05/22 02:02:56;;;;;;;9.77;4.68;;;10.00;99.90;;;;;;5019307;28;20048;-77
2022/05/22 02:05:22;;;;;;;8.05;4.28;;;10.00;99.90;;;;;;5039081;28;20044;-77
2022/05/22 02:10:34;;;;;;;7.45;4.18;;;9.90;99.90;;;;;;5042579;28;20045;-81
2022/05/22 02:13:00;;;;;;;8.13;4.60;;;9.90;99.90;;;;;;5010510;28;20045;-79
2022/05/22 02:15:26;;;;;;;11.27;4.85;;;9.80;99.90;;;;;;5023131;28;20049;-79
2022/05/22 02:17:51;;;;;;;11.70;5.15;;;8.50;99.90;;;;;;5035307;28;20047;-77
2022/05/22 02:20:18;;;;;;;5.70;4.00;;;9.80;99.90;;;;;;5017802;28;20045;-79
2022/05/22 02:22:47;;;;;;;5.10;4.18;;;11.10;99.90;;;;;;5019095;28;20048;-81
2022/05/22 02:25:16;;;;;;;7.50;3.80;;;10.60;99.90;;;;;;5003599;28;20215;-81
2022/05/22 02:27:42;;;;;;;8.95;4.65;;;9.70;99.90;;;;;;5023837;28;20044;-80
2022/05/22 02:30:09;;;;;;;6.95;3.95;;;9.70;99.90;;;;;;5019468;28;20288;-78
2022/05/22 02:32:38;;;;;;;11.80;4.55;;;9.70;99.90;;;;;;5025511;28;20119;-78
2022/05/22 02:35:06;;;;;;;6.68;3.83;;;9.70;99.90;;;;;;5019537;28;20076;-81
2022/05/22 02:37:43;;;;;;;8.00;4.35;;;9.70;99.90;;;;;;5019710;28;20067;-81
2022/05/22 02:40:10;;;;;;;8.35;3.75;;;9.60;99.90;;;;;;5017576;28;20499;-81
2022/05/22 02:42:47;;;;;;;9.07;4.57;;;9.60;99.90;;;;;;5021761;28;20119;-81
2022/05/22 02:45:15;;;;;;;9.93;4.40;;;9.60;99.90;;;;;;5022151;28;20136;-80
2022/05/22 02:47:41;;;;;;;9.77;4.53;;;9.60;99.90;;;;;;5003255;28;20072;-82
2022/05/22 02:50:08;;;;;;;8.20;3.55;;;9.50;99.90;;;;;;5020781;28;20504;-80
2022/05/22 02:52:34;;;;;;;10.90;4.30;;;9.50;99.90;;;;;;5023957;28;20141;-79
2022/05/22 02:55:00;;;;;;;7.63;3.85;;;9.40;99.90;;;;;;5023477;28;20123;-81
2022/05/22 02:57:26;;;;;;;7.78;4.03;;;9.40;99.90;;;;;;5041326;28;20041;-81
2022/05/22 02:59:54;;;;;;;8.38;3.92;;;10.30;99.90;;;;;;5023907;28;20595;-78
2022/05/22 03:02:20;;;;;;;5.95;4.00;;;9.20;99.90;;;;;;5048347;28;20253;-79
2022/05/22 03:04:47;;;;;;;7.18;4.85;;;10.70;99.90;;;;;;5031163;28;20400;-81
2022/05/22 03:07:15;;;;;;;9.32;4.72;;;8.70;99.90;;;;;;5029976;28;20039;-79
2022/05/22 03:09:42;;;;;;;8.13;4.00;;;9.40;99.90;;;;;;5040640;28;20037;-81
2022/05/22 03:12:11;;;;;;;6.25;4.15;;;9.30;99.90;;;;;;5006311;28;20037;-79
2022/05/22 03:14:36;;;;;;;7.90;4.28;;;9.30;99.90;;;;;;5031113;28;20053;-79
2022/05/22 03:17:02;;;;;;;7.25;4.50;;;9.20;99.90;;;;;;5023756;28;20053;-81
2022/05/22 03:19:28;;;;;;;4.80;3.30;;;9.30;99.90;;;;;;5005401;28;20455;-79
2022/05/22 03:21:53;;;;;;;6.72;3.85;;;10.20;99.90;;;;;;5022990;28;20044;-81
2022/05/22 03:24:19;;;;;;;11.38;4.55;;;9.20;99.90;;;;;;5047570;28;20036;-80
2022/05/22 03:26:45;;;;;;;8.13;3.88;;;9.20;99.90;;;;;;5045243;28;20037;-80
2022/05/22 03:29:11;;;;;;;8.45;4.40;;;9.20;99.90;;;;;;5028737;28;20426;-81
2022/05/22 03:31:37;;;;;;;8.60;3.97;;;9.10;99.90;;;;;;5038026;28;20045;-81
2022/05/22 03:34:03;;;;;;;4.65;4.00;;;9.90;99.90;;;;;;5023448;28;20041;-80
2022/05/22 03:36:29;;;;;;;7.07;3.83;;;9.10;99.90;;;;;;5034500;28;20041;-80
2022/05/22 03:38:55;;;;;;;4.78;3.00;;;9.20;99.90;;;;;;5046576;28;20820;-76
2022/05/22 03:41:21;;;;;;;5.90;3.53;;;9.10;99.90;;;;;;5042585;28;20045;-80
2022/05/22 03:43:47;;;;;;;7.95;3.65;;;9.20;99.90;;;;;;5029700;28;20404;-79
2022/05/22 03:46:12;;;;;;;9.38;3.78;;;9.20;99.90;;;;;;5040999;28;20037;-81
2022/05/22 03:48:38;;;;;;;6.35;3.83;;;9.20;99.90;;;;;;5022756;28;20575;-81
2022/05/22 03:51:04;;;;;;;5.63;3.53;;;9.20;99.90;;;;;;5004323;28;20060;-81
2022/05/22 03:53:29;;;;;;;7.68;3.88;;;9.00;99.90;;;;;;5039249;28;20396;-80
2022/05/22 03:55:55;;;;;;;8.75;4.32;;;9.30;99.90;;;;;;5040532;28;20033;-81
2022/05/22 03:58:21;;;;;;;8.02;3.83;;;9.20;99.90;;;;;;5044310;28;20124;-80
2022/05/22 04:00:47;;;;;;;7.68;3.33;;;9.40;99.90;;;;;;5032365;28;20459;-80
2022/05/22 04:03:13;;;;;;;8.52;3.83;;;9.20;99.90;;;;;;5043994;28;20041;-81
2022/05/22 04:05:38;;;;;;;9.15;4.15;;;9.10;99.90;;;;;;5026643;28;20045;-80
2022/05/22 04:08:05;;;;;;;8.48;3.65;;;9.20;99.90;;;;;;5042392;28;20068;-80
2022/05/22 04:10:31;;;;;;;10.75;4.05;;;9.30;99.90;;;;;;5025339;28;20382;-81
2022/05/22 04:12:56;;;;;;;9.65;4.05;;;8.80;99.90;;;;;;5040110;28;20055;-77
2022/05/22 04:15:23;;;;;;;9.55;4.22;;;9.30;99.90;;;;;;5040663;28;20047;-80
2022/05/22 04:17:48;;;;;;;8.18;4.32;;;9.30;99.90;;;;;;5022650;28;20044;-79
2022/05/22 04:20:16;;;;;;;13.30;4.15;;;9.30;99.90;;;;;;5032075;28;20045;-79
2022/05/22 04:25:26;;;;;;;10.85;4.32;;;9.40;99.90;;;;;;5023401;28;20123;-81
2022/05/22 04:27:52;;;;;;;7.70;4.25;;;9.40;99.90;;;;;;5023284;28;20103;-79
2022/05/22 04:30:19;;;;;;;6.00;3.78;;;9.00;99.90;;;;;;5044220;28;20414;-80
2022/05/22 04:32:49;;;;;;;7.82;3.63;;;9.30;99.90;;;;;;5043930;28;20041;-80
2022/05/22 04:35:16;;;;;;;7.50;3.78;;;9.40;99.90;;;;;;5038755;28;20043;-77
2022/05/22 04:37:42;;;;;;;7.97;3.90;;;9.50;99.90;;;;;;5021414;28;20389;-80
2022/05/22 04:40:10;;;;;;;11.63;4.40;;;9.60;99.90;;;;;;5047042;28;20159;-80
2022/05/22 04:42:36;;;;;;;13.40;4.88;;;9.60;99.90;;;;;;5048916;28;20120;-81
2022/05/22 04:45:04;;;;;;;14.68;4.55;;;9.60;99.90;;;;;;5025897;28;20041;-80
2022/05/22 04:47:30;;;;;;;8.88;4.57;;;9.60;99.90;;;;;;5018009;28;20179;-79
2022/05/22 04:49:56;;;;;;;11.93;4.72;;;9.70;99.90;;;;;;5006678;28;20473;-76
2022/05/22 04:52:21;;;;;;;10.68;4.00;;;9.70;99.90;;;;;;5040234;28;20054;-80
2022/05/22 04:54:47;;;;;;;9.02;4.60;;;9.70;99.90;;;;;;5026359;28;20049;-76
2022/05/22 04:57:13;;;;;;;11.02;4.57;;;11.00;99.90;;;;;;5027455;28;20045;-80
2022/05/22 04:59:39;;;;;;;11.13;4.80;;;9.80;99.90;;;;;;5020080;28;20053;-80
2022/05/22 05:02:05;;;;;;;9.48;5.20;;;9.70;99.90;;;;;;5016761;28;20059;-80
2022/05/22 05:04:31;;;;;;;13.10;4.82;;;9.90;99.90;;;;;;5044684;28;20504;-80
2022/05/22 05:06:57;;;;;;;12.55;5.10;;;9.90;99.90;;;;;;5025753;28;20183;-80
2022/05/22 05:09:23;;;;;;;11.52;5.18;;;10.20;99.90;;;;;;5044184;28;20045;-80
2022/05/22 05:11:48;;;;;;;15.85;5.45;;;10.00;99.90;;;;;;5025285;28;20033;-80
2022/05/22 05:14:14;;;;;;;15.88;5.60;;;11.30;99.90;;;;;;5018137;28;20532;-80
2022/05/22 05:16:40;;;;;;;14.20;5.93;;;10.00;99.90;;;;;;5006588;28;20060;-78
2022/05/22 05:19:05;;;;;;;17.85;6.60;;;10.80;99.90;;;;;;5017845;28;20052;-80
2022/05/22 05:21:31;;;;;;;21.08;6.65;;;11.50;99.90;;;;;;5015318;28;20049;-78
2022/05/22 05:23:57;;;;;;;15.70;6.35;;;10.90;99.90;;;;;;5004302;28;20075;-79
2022/05/22 05:26:23;;;;;;;14.80;6.25;;;9.70;99.90;;;;;;5038615;28;20052;-79
2022/05/22 05:28:49;;;;;;;19.98;7.30;;;10.20;99.90;;;;;;5038880;28;20048;-80
2022/05/22 05:31:16;;;;;;;17.73;8.30;;;10.20;99.90;;;;;;5039913;28;20037;-80
2022/05/22 05:33:42;;;;;;;14.23;6.18;;;10.10;99.90;;;;;;5036267;28;20077;-79
2022/05/22 05:36:09;;;;;;;22.83;7.55;;;10.30;99.90;;;;;;5039628;28;20495;-77
2022/05/22 05:38:35;;;;;;;20.63;7.55;;;11.40;99.90;;;;;;5028884;28;20040;-79
2022/05/22 05:41:01;;;;;;;13.90;7.60;;;10.30;99.90;;;;;;5026534;28;20048;-78
2022/05/22 05:43:27;;;;;;;23.73;8.38;;;10.40;99.90;;;;;;5019472;28;20041;-80
2022/05/22 05:45:52;;;;;;;17.95;6.85;;;10.40;99.90;;;;;;5026771;28;20106;-77
2022/05/22 05:48:18;;;;;;;15.38;7.28;;;10.50;99.90;;;;;;5044532;28;20033;-80
2022/05/22 05:50:44;;;;;;;19.42;8.30;;;10.60;99.90;;;;;;5022014;28;20064;-80
2022/05/22 05:53:09;;;;;;;19.35;7.70;;;10.90;99.90;;;;;;5026810;28;20056;-78
2022/05/22 05:55:35;;;;;;;17.08;8.20;;;10.80;99.90;;;;;;5003795;28;20041;-79
2022/05/22 05:58:03;;;;;;;18.42;6.80;;;10.80;99.90;;;;;;5022753;28;20044;-78
2022/05/22 06:00:29;;;;;;;19.20;7.18;;;10.90;99.90;;;;;;5021269;28;20053;-79
2022/05/22 06:02:54;;;;;;;16.27;7.50;;;11.00;99.90;;;;;;5020159;28;20048;-77
2022/05/22 06:05:21;;;;;;;20.38;6.95;;;11.10;99.90;;;;;;5029593;28;20037;-79
2022/05/22 06:07:54;;;;;;;18.27;6.93;;;11.20;99.90;;;;;;5011097;28;20049;-80
2022/05/22 06:10:20;;;;;;;20.42;7.82;;;11.90;99.90;;;;;;5032639;28;20037;-80
2022/05/22 06:12:47;;;;;;;15.98;6.47;;;11.20;99.90;;;;;;5040771;28;20053;-78
2022/05/22 06:15:14;;;;;;;12.68;6.53;;;11.30;99.90;;;;;;5019273;28;20044;-78
2022/05/22 06:17:44;;;;;;;17.27;6.95;;;11.40;99.90;;;;;;5035780;28;20080;-79
2022/05/22 06:20:13;;;;;;;13.98;6.25;;;11.50;99.90;;;;;;5040766;28;20040;-80
2022/05/22 06:22:38;;;;;;;20.58;6.60;;;11.50;99.90;;;;;;5018433;28;20050;-78
2022/05/22 06:25:07;;;;;;;13.50;5.70;;;11.90;99.90;;;;;;5007356;28;20464;-78
2022/05/22 06:27:33;;;;;;;22.75;6.50;;;11.70;99.90;;;;;;5006251;28;20045;-78
2022/05/22 06:29:58;;;;;;;19.48;6.40;;;11.70;99.90;;;;;;5017738;28;20056;-79
2022/05/22 06:32:24;;;;;;;25.80;8.05;;;10.80;99.90;;;;;;5039620;28;20072;-80
2022/05/22 06:34:50;;;;;;;16.42;6.03;;;11.90;99.90;;;;;;5041162;28;20386;-79
2022/05/22 06:37:20;;;;;;;10.68;5.72;;;13.50;99.90;;;;;;5035713;28;20066;-79
2022/05/22 06:39:53;;;;;;;17.30;5.50;;;12.00;99.90;;;;;;5022505;28;20597;-79
2022/05/22 06:42:28;;;;;;;16.10;5.82;;;12.00;99.90;;;;;;5006001;28;20048;-77
2022/05/22 06:45:03;;;;;;;21.40;6.93;;;11.10;99.90;;;;;;5020446;28;20041;-79
2022/05/22 06:47:30;;;;;;;16.75;5.55;;;11.10;99.90;;;;;;5022540;28;20400;-79
2022/05/22 06:49:58;;;;;;;16.67;5.75;;;13.50;99.90;;;;;;5037282;28;20037;-80
2022/05/22 06:52:25;;;;;;;16.77;5.13;;;12.30;99.90;;;;;;5019022;28;20091;-80
2022/05/22 06:54:51;;;;;;;10.60;4.60;;;12.30;99.90;;;;;;5004252;28;20365;-80
2022/05/22 06:57:19;;;;;;;17.15;5.75;;;12.40;99.90;;;;;;5002895;28;20051;-80
2022/05/22 06:59:46;;;;;;;11.63;4.68;;;13.20;99.90;;;;;;5037782;28;20067;-80
2022/05/22 07:02:13;;;;;;;16.20;5.60;;;12.50;99.90;;;;;;5003443;28;20040;-79
2022/05/22 07:04:39;;;;;;;13.40;4.88;;;12.60;99.90;;;;;;5019581;28;20040;-79
2022/05/22 07:07:06;;;;;;;17.02;4.95;;;12.70;99.90;;;;;;5002884;28;20029;-79
2022/05/22 07:09:32;;;;;;;16.10;4.88;;;12.80;99.90;;;;;;5021360;28;20041;-80
2022/05/22 07:11:59;;;;;;;16.48;4.72;;;13.20;99.90;;;;;;5003352;28;20396;-79
2022/05/22 07:14:27;;;;;;;13.02;4.53;;;13.00;99.90;;;;;;5026165;28;20073;-79
2022/05/22 07:16:53;;;;;;;14.00;3.95;;;13.10;99.90;;;;;;5027752;28;20045;-78
2022/05/22 07:19:19;;;;;;;12.88;3.50;;;13.20;99.90;;;;;;5018497;28;20046;-78
2022/05/22 07:21:54;;;;;;;17.10;5.38;;;13.30;99.90;;;;;;4642752;28;10002834;-78
2022/05/22 07:24:20;;;;;;;9.63;3.35;;;13.40;99.90;;;;;;5035317;28;20473;-79
2022/05/22 07:26:46;;;;;;;15.35;4.00;;;13.40;99.90;;;;;;5037903;28;20347;-79
2022/05/22 07:29:11;;;;;;;11.40;3.45;;;13.40;99.90;;;;;;5016248;28;20045;-79
2022/05/22 07:31:40;;;;;;;13.65;3.90;;;13.60;99.90;;;;;;5040622;28;20049;-79
2022/05/22 07:34:06;;;;;;;13.02;4.47;;;13.60;99.90;;;;;;5024685;28;20047;-78
2022/05/22 07:36:31;;;;;;;14.18;4.18;;;13.60;99.90;;;;;;5033986;28;20033;-78
2022/05/22 07:38:57;;;;;;;19.00;4.40;;;14.00;99.90;;;;;;5016137;28;20057;-79
2022/05/22 07:41:23;;;;;;;14.90;3.38;;;13.70;99.90;;;;;;5039817;28;20037;-79
2022/05/22 07:43:49;;;;;;;13.50;3.17;;;13.80;99.90;;;;;;5024891;28;20060;-77
2022/05/22 07:46:15;;;;;;;9.15;2.53;;;13.90;99.90;;;;;;5003606;28;20039;-79
2022/05/22 07:48:42;;;;;;;12.93;2.60;;;13.80;99.90;;;;;;5039233;28;20405;-78
2022/05/22 07:51:10;;;;;;;14.65;3.30;;;14.00;99.90;;;;;;5006700;28;20040;-80
2022/05/22 07:53:35;;;;;;;14.65;2.80;;;14.00;99.90;;;;;;5024679;28;20052;-79
2022/05/22 07:56:02;;;;;;;8.52;2.22;;;14.10;99.90;;;;;;5024280;28;20033;-78
2022/05/22 07:58:29;;;;;;;16.75;3.30;;;14.10;99.90;;;;;;5045793;28;20556;-79
2022/05/22 08:00:56;;;;;;;10.25;3.60;;;14.10;99.90;;;;;;5023120;28;20055;-80
2022/05/22 08:03:22;;;;;;;7.18;2.38;;;14.20;99.90;;;;;;5041742;28;20068;-79
2022/05/22 08:05:48;;;;;;;7.38;2.88;;;14.20;99.90;;;;;;5023722;28;20049;-79
2022/05/22 08:08:14;;;;;;;8.65;2.88;;;14.30;99.90;;;;;;5046749;28;20045;-79
2022/05/22 08:10:41;;;;;;;9.00;2.35;;;14.30;99.90;;;;;;5043431;28;20170;-78
2022/05/22 08:13:09;;;;;;;8.68;2.53;;;14.30;99.90;;;;;;5041180;28;20041;-79
2022/05/22 08:15:38;;;;;;;8.68;2.60;;;14.40;99.90;;;;;;5014159;28;20057;-79
2022/05/22 08:18:04;;;;;;;10.35;2.50;;;14.40;99.90;;;;;;5039986;28;20069;-79
2022/05/22 08:20:34;;;;;;;11.15;2.55;;;14.40;99.90;;;;;;5040191;28;20489;-80
2022/05/22 08:23:12;;;;;;;8.90;1.60;;;14.50;99.90;;;;;;5034619;28;20059;-79
2022/05/22 08:25:37;;;;;;;8.60;2.58;;;15.20;99.90;;;;;;5037669;28;20056;-79
2022/05/22 08:28:04;;;;;;;8.20;2.38;;;14.60;99.90;;;;;;5018356;28;20045;-79
2022/05/22 08:30:30;;;;;;;6.93;1.80;;;14.60;99.90;;;;;;5006225;28;20036;-79
2022/05/22 08:32:57;;;;;;;6.00;1.88;;;14.70;99.90;;;;;;5037885;28;20048;-79
2022/05/22 08:35:25;;;;;;;9.05;2.15;;;14.80;99.90;;;;;;5033680;28;20041;-79
2022/05/22 08:37:51;;;;;;;7.95;2.75;;;14.80;99.90;;;;;;5014366;28;20049;-84
2022/05/22 08:40:20;;;;;;;11.75;2.25;;;15.10;99.90;;;;;;5026661;28;20089;-88
2022/05/22 08:42:56;;;;;;;10.98;3.13;;;14.80;99.90;;;;;;5028346;28;20377;-90
2022/05/22 08:45:33;;;;;;;15.13;3.45;;;16.30;99.90;;;;;;5008499;28;20037;-82
2022/05/22 08:48:07;;;;;;;10.18;2.92;;;14.90;99.90;;;;;;5016595;28;20037;-81
2022/05/22 08:50:35;;;;;;;10.67;2.20;;;14.90;99.90;;;;;;5003134;28;20242;-73
2022/05/22 08:53:11;;;;;;;14.82;3.17;;;15.70;99.90;;;;;;5026356;28;20479;-76
2022/05/22 08:58:58;;;;;;;16.17;3.90;;;15.20;99.90;;;;;;5024975;28;20075;-80
2022/05/22 09:01:34;;;;;;;23.60;3.95;;;15.30;99.90;;;;;;5023872;28;20792;-77
2022/05/22 09:04:16;;;;;;;20.92;3.38;;;15.40;99.90;;;;;;5021745;28;20045;-77
2022/05/22 09:06:59;;;;;;;7.82;1.90;;;15.80;99.90;;;;;;5025477;28;20602;-81
2022/05/22 09:09:28;;;;;;;5.35;1.67;;;15.60;99.90;;;;;;5039302;28;20092;-80
2022/05/22 09:12:19;;;;;;;9.50;2.22;;;15.60;99.90;;;;;;5023302;28;20101;-76
2022/05/22 09:15:14;;;;;;;6.78;1.65;;;15.70;99.90;;;;;;5042586;28;20099;-79
2022/05/22 09:17:56;;;;;;;9.45;2.28;;;15.80;99.90;;;;;;5020761;28;20139;-76
2022/05/22 09:20:36;;;;;;;11.23;2.15;;;15.80;99.90;;;;;;5025264;28;20500;-81
2022/05/22 09:23:31;;;;;;;8.32;2.15;;;15.80;99.90;;;;;;5022758;28;20045;-80
2022/05/22 09:26:33;;;;;;;7.00;2.42;;;15.80;99.90;;;;;;5020422;28;20045;-78
2022/05/22 09:29:30;;;;;;;7.72;2.22;;;15.90;99.90;;;;;;5038361;28;20115;-78
2022/05/22 09:32:11;;;;;;;11.88;2.70;;;16.10;99.90;;;;;;5042034;28;20497;-74
2022/05/22 09:34:45;;;;;;;9.13;2.30;;;16.10;99.90;;;;;;5024315;28;20056;-75
2022/05/22 09:37:31;;;;;;;12.25;2.53;;;16.20;99.90;;;;;;5026294;28;20039;-76
2022/05/22 09:40:02;;;;;;;6.15;2.08;;;16.30;99.90;;;;;;5024184;28;20064;-79
2022/05/22 09:42:51;;;;;;;11.68;2.15;;;16.60;99.90;;;;;;5026618;28;20049;-77
2022/05/22 09:45:49;;;;;;;7.22;2.00;;;16.30;99.90;;;;;;5023644;28;20056;-79
2022/05/22 09:48:54;;;;;;;10.70;1.60;;;16.30;99.90;;;;;;5024097;28;20424;-79
2022/05/22 09:51:41;;;;;;;8.13;2.35;;;16.40;99.90;;;;;;5039653;28;20560;-79
2022/05/22 09:54:28;;;;;;;8.73;2.08;;;16.50;99.90;;;;;;5041941;28;20045;-73
2022/05/22 09:57:14;;;;;;;7.63;2.85;;;16.60;99.90;;;;;;5038269;28;20050;-75
2022/05/22 09:59:49;;;;;;;9.20;2.00;;;16.50;99.90;;;;;;5010661;28;20257;-75
2022/05/22 10:02:38;;;;;;;8.68;2.15;;;16.50;99.90;;;;;;5037922;28;20139;-75
2022/05/22 10:05:41;;;;;;;7.78;2.00;;;16.40;99.90;;;;;;5021775;28;20132;-76
2022/05/22 10:08:45;;;;;;;6.30;1.70;;;16.40;99.90;;;;;;5037731;28;20046;-75
2022/05/22 10:11:25;;;;;;;8.07;1.80;;;16.50;99.90;;;;;;5034673;28;20252;-75
2022/05/22 10:14:09;;;;;;;6.40;1.80;;;16.60;99.90;;;;;;5038950;28;20045;-74
2022/05/22 10:16:37;;;;;;;9.55;2.30;;;16.70;99.90;;;;;;5037413;28;20102;-76
2022/05/22 10:19:38;;;;;;;8.52;1.98;;;16.70;99.90;;;;;;5018133;28;20375;-75
2022/05/22 10:22:25;;;;;;;6.63;2.33;;;16.70;99.90;;;;;;5020266;28;20266;-76
2022/05/22 10:24:51;;;;;;;5.05;1.50;;;16.70;99.90;;;;;;5042588;28;20073;-77
2022/05/22 10:27:51;;;;;;;4.35;1.10;;;16.70;99.90;;;;;;5024797;28;20186;-74
2022/05/22 10:30:39;;;;;;;8.27;1.70;;;16.70;99.90;;;;;;5038685;28;20103;-74
2022/05/22 10:33:15;;;;;;;6.72;1.40;;;16.80;99.90;;;;;;5001761;28;20055;-72
2022/05/22 10:35:49;;;;;;;5.72;1.20;;;16.80;99.90;;;;;;5021988;28;20049;-72
2022/05/22 10:38:25;;;;;;;10.13;1.92;;;16.80;99.90;;;;;;5039450;28;20040;-74
2022/05/22 10:43:46;;;;;;;4.93;1.48;;;17.10;99.90;;;;;;5022580;28;20057;-73
2022/05/22 10:46:13;;;;;;;5.45;1.58;;;16.90;99.90;;;;;;5037877;28;20489;-72
2022/05/22 10:48:55;;;;;;;7.00;1.23;;;16.90;99.90;;;;;;5040034;28;20138;-72
2022/05/22 10:51:29;;;;;;;6.65;1.23;;;17.10;99.90;;;;;;5038419;28;20076;-74
2022/05/22 10:54:00;;;;;;;6.40;1.50;;;17.20;99.90;;;;;;5016041;28;20041;-73
2022/05/22 10:56:32;;;;;;;4.93;0.95;;;17.40;99.90;;;;;;5019453;28;20488;-78
2022/05/22 10:59:01;;;;;;;5.63;0.93;;;17.60;99.90;;;;;;5024947;28;20122;-79
2022/05/22 11:01:29;;;;;;;5.88;1.45;;;17.80;99.90;;;;;;5029646;28;20090;-86
2022/05/22 11:04:10;;;;;;;7.80;1.90;;;17.90;99.90;;;;;;5039373;28;20420;-87
2022/05/22 11:06:57;;;;;;;8.32;2.70;;;18.10;99.90;;;;;;5040382;28;20056;-87
2022/05/22 11:09:25;;;;;;;8.02;1.83;;;18.30;99.90;;;;;;5000222;28;20095;-87
2022/05/22 11:11:51;;;;;;;6.03;1.20;;;18.40;99.90;;;;;;5023390;28;20033;-88
2022/05/22 11:14:21;;;;;;;8.57;1.50;;;18.60;99.90;;;;;;5030180;28;20405;-87
2022/05/22 11:16:47;;;;;;;3.08;1.10;;;18.70;99.90;;;;;;5021576;28;20420;-87
2022/05/22 11:19:31;;;;;;;5.10;1.58;;;18.80;99.90;;;;;;5021923;28;20533;-88
2022/05/22 11:21:56;;;;;;;5.57;1.27;;;18.80;99.90;;;;;;5055866;28;20034;-84
2022/05/22 11:24:25;;;;;;;3.63;1.38;;;19.10;99.90;;;;;;5044457;28;20516;-79
2022/05/22 11:27:06;;;;;;;8.88;1.30;;;19.10;99.90;;;;;;5007454;28;20049;-90
2022/05/22 11:29:37;;;;;;;4.63;1.23;;;19.20;99.90;;;;;;5041572;28;20110;-85
2022/05/22 11:32:18;;;;;;;2.83;0.80;;;19.30;99.90;;;;;;5029664;28;20039;-86
2022/05/22 11:35:07;;;;;;;4.95;0.93;;;19.50;99.90;;;;;;5006222;28;20049;-88
2022/05/22 11:38:25;;;;;;;4.15;0.82;;;19.80;99.90;;;;;;5030169;28;20045;-74
2022/05/22 11:41:02;;;;;;;7.70;1.25;;;20.10;99.90;;;;;;5029729;28;20075;-73
2022/05/22 11:44:06;;;;;;;6.25;1.60;;;20.30;99.90;;;;;;5045834;28;20504;-73
2022/05/22 11:46:46;;;;;;;7.93;0.90;;;20.50;99.90;;;;;;5043746;28;20104;-79
2022/05/22 11:49:32;;;;;;;9.18;1.65;;;20.50;99.90;;;;;;5045595;28;20053;-76
2022/05/22 11:55:41;;;;;;;7.13;1.30;;;20.80;99.90;;;;;;5045699;28;20195;-72
2022/05/22 11:58:25;;;;;;;4.30;1.00;;;20.70;99.90;;;;;;5053671;28;20072;-74
2022/05/22 12:01:08;;;;;;;6.63;1.20;;;20.90;99.90;;;;;;5046729;28;20085;-74
2022/05/22 12:03:52;;;;;;;6.30;0.98;;;21.10;99.90;;;;;;5042605;28;20045;-73
2022/05/22 12:06:44;;;;;;;5.78;1.25;;;21.30;99.90;;;;;;5041817;28;20042;-72
2022/05/22 12:09:36;;;;;;;18.83;13.52;;;21.30;98.80;;;;;;5028045;28;20080;-72
2022/05/22 12:12:22;;;;;;;5.72;1.70;;;21.50;99.60;;;;;;5021825;28;20037;-73
2022/05/22 12:15:23;;;;;;;7.07;2.38;;;21.30;99.20;;;;;;5038470;28;20091;-74
2022/05/22 12:18:00;;;;;;;4.55;0.90;;;21.10;99.90;;;;;;5039406;28;20049;-73
2022/05/22 12:21:13;;;;;;;7.30;1.15;;;21.00;99.90;;;;;;5044139;28;20612;-73
2022/05/22 12:24:05;;;;;;;6.78;1.02;;;20.90;98.20;;;;;;5010532;28;20165;-73
2022/05/22 12:26:31;;;;;;;4.50;1.65;;;20.50;98.40;;;;;;5025215;28;20098;-73
2022/05/22 12:29:11;;;;;;;7.15;1.63;;;20.30;99.80;;;;;;5030913;28;20397;-73
2022/05/22 12:31:46;;;;;;;4.47;0.90;;;20.20;99.90;;;;;;5033278;28;20406;-73
2022/05/22 12:34:18;;;;;;;3.42;0.90;;;20.20;99.30;;;;;;5042476;28;20044;-73
2022/05/22 12:36:48;;;;;;;6.03;1.05;;;20.00;99.50;;;;;;5022046;28;20051;-79
2022/05/22 12:39:17;;;;;;;8.40;1.00;;;20.00;99.90;;;;;;5038166;28;20135;-72
2022/05/22 12:42:17;;;;;;;5.40;1.17;;;20.10;99.60;;;;;;5040193;28;20040;-74
2022/05/22 12:44:43;;;;;;;8.32;2.28;;;20.20;99.90;;;;;;5042567;28;20067;-75
2022/05/22 12:47:15;;;;;;;6.05;1.77;;;20.50;99.90;;;;;;5023802;28;20043;-75
2022/05/22 12:49:52;;;;;;;5.20;1.20;;;20.70;99.90;;;;;;5037807;28;20151;-79
2022/05/22 12:52:24;;;;;;;4.95;1.08;;;20.90;99.30;;;;;;5029001;28;20056;-79
2022/05/22 12:55:28;;;;;;;5.10;1.20;;;21.00;99.00;;;;;;5027560;28;20131;-78
2022/05/22 12:57:56;;;;;;;4.18;0.88;;;21.00;98.10;;;;;;5022522;28;20548;-78
2022/05/22 13:00:42;;;;;;;4.07;1.27;;;21.00;98.70;;;;;;5028746;28;20048;-79
2022/05/22 13:03:13;;;;;;;5.95;1.40;;;21.00;97.10;;;;;;5046822;28;20171;-79
2022/05/22 13:05:42;;;;;;;6.30;1.45;;;20.90;96.50;;;;;;5043621;28;20371;-79
2022/05/22 13:08:27;;;;;;;4.03;1.08;;;20.70;96.80;;;;;;5017027;28;20052;-79
2022/05/22 13:10:55;;;;;;;3.22;0.75;;;20.60;96.90;;;;;;5025325;28;20048;-79
2022/05/22 13:13:31;;;;;;;7.50;1.20;;;20.40;96.90;;;;;;5018789;28;20401;-79
2022/05/22 13:16:06;;;;;;;4.18;0.90;;;20.30;97.70;;;;;;5043439;28;20071;-79
2022/05/22 13:18:32;;;;;;;4.07;0.90;;;20.20;97.90;;;;;;5024450;28;20041;-78
2022/05/22 13:21:00;;;;;;;7.95;1.25;;;20.10;97.90;;;;;;5045589;28;20489;-79
2022/05/22 13:23:33;;;;;;;7.07;1.08;;;20.00;97.90;;;;;;5025464;28;20142;-80
2022/05/22 13:26:23;;;;;;;20.30;2.15;;;19.90;98.30;;;;;;5043504;28;20037;-80